Enter the Airport ICAO Code

Search by Airport or City

Current Weather

LETO | Madrid–Torrejón Airport

Madrid, Community of Madrid, Spain

Last Update 5 Minutes Ago

Clear Sky

Temperature of 29 ºC

Light to Moderate Winds from East

Temperature

29 ºC

Dew Point Temperature

13 ºC

Relative Humidity

37.59 %

Wind Direction

East (070º, Ranging from 360º to 120º)

Wind Velocity

13 km/h (07 kt)

Gusts

None

Visibility

No Significant Reductions

Sea Level Pressure

1021 hPa (Hectopascals)

Layers of Clouds

None

METAR LETO 131000Z 07007KT 360V120 CAVOK 29/13 Q1021 NOSIG

Weather Forecast

LETO | Madrid–Torrejón Airport

Madrid, Community of Madrid, Spain

Forecast valid for the next 20 Hours

From now on it is expected:

Clear Sky

Moderate Winds from NorthEast

In 4 hours it is expected the begining of 5 hours with intermittent periods of:

Sky with Few Clouds

In 12 hours it is expected the begining of 2 hours with intermittent periods of:

Moderate Winds from NorthEast with Gusts

Maximum Temperature

35 ºC in 5 Hours

Minimum Temperature

19 ºC in 19 Hours

TAF LETO 130500Z 1306/1406 06010KT CAVOK TX35/1315Z TN19/1405Z TEMPO 1306/1308 VRB05KT PROB30 TEMPO 1314/1319 FEW045TCU PROB30 TEMPO 1322/1324 05015G25KT